Time;durP1;ratioP1;P1;durP2;ratioP2;P2;SDS_P1;SDS_P2;PMS_P1;PMS_P2;Temp;Humidity;BMP_temperature;BMP_pressure;BME280_temperature;BME280_humidity;BME280_pressure;Samples;Min_cycle;Max_cycle;Signal;HPM_P1;HPM_P2
2022/03/30 00:00:40;;;;;;;32.23;14.78;;;;;;;8.23;73.44;98229.71;1712102;82;20875;-78
2022/03/30 00:03:07;;;;;;;28.98;15.70;;;;;;;8.20;73.67;98231.17;1734409;82;21141;-78
2022/03/30 00:05:34;;;;;;;25.43;14.90;;;;;;;8.18;73.84;98239.47;1739572;82;21146;-78
2022/03/30 00:08:02;;;;;;;27.00;16.52;;;;;;;8.16;74.14;98238.44;1708775;83;21455;-79
2022/03/30 00:10:29;;;;;;;28.87;16.12;;;;;;;8.16;74.47;98239.00;1658583;85;21034;-78
2022/03/30 00:12:56;;;;;;;31.30;17.42;;;;;;;8.16;74.78;98245.27;1668746;84;20984;-80
2022/03/30 00:15:24;;;;;;;28.60;15.32;;;;;;;8.15;75.08;98244.23;1727044;81;21167;-79
2022/03/30 00:17:51;;;;;;;24.30;13.70;;;;;;;8.13;75.12;98236.37;1730855;81;20977;-80
2022/03/30 00:20:19;;;;;;;30.08;15.65;;;;;;;8.12;75.32;98240.23;1738254;81;21541;-79
2022/03/30 00:22:47;;;;;;;27.58;15.30;;;;;;;8.10;75.45;98241.70;1735234;81;20938;-81
2022/03/30 00:25:15;;;;;;;28.55;15.88;;;;;;;8.08;75.59;98242.63;1752234;81;20966;-81
2022/03/30 00:27:47;;;;;;;26.85;14.55;;;;;;;8.04;76.08;98232.11;1738365;81;21856;-79
2022/03/30 00:30:14;;;;;;;31.45;16.10;;;;;;;8.01;76.29;98230.05;1745361;81;21120;-80
2022/03/30 00:32:41;;;;;;;32.30;16.95;;;;;;;7.98;76.62;98226.60;1747972;81;20950;-80
2022/03/30 00:35:09;;;;;;;37.15;17.35;;;;;;;7.93;76.90;98224.86;1738345;81;21514;-81
2022/03/30 00:37:37;;;;;;;37.55;17.35;;;;;;;7.89;77.16;98223.91;1742027;81;20964;-78
2022/03/30 00:40:08;;;;;;;22.27;14.43;;;;;;;7.84;77.63;98218.64;1753852;81;21112;-80
2022/03/30 00:42:35;;;;;;;27.32;15.20;;;;;;;7.79;77.85;98221.55;1745945;81;20938;-75
2022/03/30 00:45:10;;;;;;;26.25;14.68;;;;;;;7.74;77.99;98224.47;1740839;81;21143;-73
2022/03/30 00:47:38;;;;;;;32.20;16.15;;;;;;;7.73;78.15;98218.21;1718769;82;20907;-74
2022/03/30 00:50:06;;;;;;;30.92;14.65;;;;;;;7.69;78.23;98220.56;1731228;81;21254;-75
2022/03/30 00:52:34;;;;;;;22.32;14.00;;;;;;;7.66;78.38;98228.05;1735638;81;21426;-74
2022/03/30 00:55:00;;;;;;;27.37;14.13;;;;;;;7.62;78.51;98225.17;1736046;81;21171;-76
2022/03/30 00:57:29;;;;;;;25.62;13.95;;;;;;;7.61;78.73;98220.84;1734519;81;21241;-71
2022/03/30 00:59:56;;;;;;;26.45;14.03;;;;;;;7.58;78.89;98220.92;1728528;81;20959;-75
2022/03/30 01:02:23;;;;;;;21.70;13.68;;;;;;;7.58;79.09;98216.83;1734985;81;20931;-74
2022/03/30 01:04:50;;;;;;;25.43;13.20;;;;;;;7.58;79.32;98217.39;1737852;81;21145;-77
2022/03/30 01:07:18;;;;;;;27.05;15.05;;;;;;;7.57;79.51;98213.06;1736502;81;21151;-75
2022/03/30 01:09:46;;;;;;;26.35;14.53;;;;;;;7.55;79.72;98209.86;1726102;81;21050;-75
2022/03/30 01:12:13;;;;;;;25.27;13.58;;;;;;;7.53;79.65;98206.09;1725269;81;21726;-75
2022/03/30 01:14:41;;;;;;;27.65;15.05;;;;;;;7.52;79.73;98204.48;1738009;81;21549;-75
2022/03/30 01:17:08;;;;;;;24.85;14.63;;;;;;;7.50;79.87;98201.87;1691786;83;21092;-76
2022/03/30 01:19:35;;;;;;;34.75;16.40;;;;;;;7.48;80.38;98202.20;1681668;84;21015;-75
2022/03/30 01:22:07;;;;;;;35.70;17.67;;;;;;;7.44;80.79;98211.38;1686399;84;23004;-76
2022/03/30 01:24:35;;;;;;;27.65;15.83;;;;;;;7.38;81.11;98206.66;1734029;82;21108;-75
2022/03/30 01:27:04;;;;;;;30.17;15.13;;;;;;;7.34;81.28;98204.34;1730307;81;22329;-74
2022/03/30 01:32:29;;;;;;;23.38;14.13;;;;;;;7.33;81.70;98204.11;1735275;81;21082;-76
2022/03/30 01:34:59;;;;;;;28.92;14.73;;;;;;;7.33;81.88;98200.02;1700484;83;20932;-81
2022/03/30 01:37:28;;;;;;;21.77;13.95;;;;;;;7.33;82.33;98195.12;1670700;84;21556;-80
2022/03/30 01:39:57;;;;;;;29.52;15.55;;;;;;;7.32;82.51;98186.13;1713797;82;20908;-82
2022/03/30 01:42:25;;;;;;;42.95;23.57;;;;;;;7.30;83.02;98192.48;1713859;82;22126;-81
2022/03/30 01:44:52;;;;;;;36.53;19.40;;;;;;;7.27;83.20;98205.41;1729757;81;21525;-79
2022/03/30 01:47:19;;;;;;;41.37;20.15;;;;;;;7.27;83.39;98189.03;1722669;82;21040;-79
2022/03/30 01:49:46;;;;;;;34.70;18.35;;;;;;;7.27;83.63;98183.01;1734246;81;20895;-81
2022/03/30 01:52:16;;;;;;;32.55;17.92;;;;;;;7.23;84.10;98186.16;1690464;83;20960;-82
2022/03/30 01:54:43;;;;;;;38.88;20.32;;;;;;;7.20;84.48;98181.34;1692196;83;21259;-80
2022/03/30 01:57:13;;;;;;;44.08;21.52;;;;;;;7.17;84.73;98190.19;1677342;84;21594;-76
2022/03/30 01:59:44;;;;;;;38.20;20.10;;;;;;;7.13;85.04;98199.35;1742522;81;21569;-78
2022/03/30 02:02:11;;;;;;;36.23;19.75;;;;;;;7.08;85.32;98197.59;1743225;81;21415;-79
2022/03/30 02:04:39;;;;;;;30.08;16.93;;;;;;;7.02;85.70;98202.19;1749762;81;20923;-75
2022/03/30 02:07:09;;;;;;;29.55;16.57;;;;;;;6.97;86.16;98199.06;1754406;81;21184;-78
2022/03/30 02:09:37;;;;;;;27.82;17.00;;;;;;;6.95;86.68;98191.77;1709367;83;20889;-78
2022/03/30 02:12:05;;;;;;;28.23;15.75;;;;;;;6.94;86.96;98186.87;1709953;82;20975;-76
2022/03/30 02:14:34;;;;;;;30.92;17.23;;;;;;;6.91;87.33;98182.09;1695123;83;21017;-76
2022/03/30 02:17:03;;;;;;;27.85;16.90;;;;;;;6.92;87.62;98186.99;1688186;83;20918;-75
2022/03/30 02:19:30;;;;;;;27.67;16.65;;;;;;;6.92;87.93;98192.45;1691476;83;21119;-79
2022/03/30 02:21:56;;;;;;;29.90;16.52;;;;;;;6.89;88.21;98191.17;1686588;83;20937;-74
2022/03/30 02:24:23;;;;;;;26.57;16.37;;;;;;;6.88;88.51;98188.20;1693319;83;21001;-76
2022/03/30 02:26:50;;;;;;;28.42;15.85;;;;;;;6.86;88.75;98191.82;1691487;84;20953;-75
2022/03/30 02:29:17;;;;;;;27.20;15.72;;;;;;;6.84;89.22;98190.54;1678122;84;21011;-76
2022/03/30 02:31:46;;;;;;;28.17;16.55;;;;;;;6.78;89.47;98194.00;1678272;85;21250;-77
2022/03/30 02:34:12;;;;;;;28.90;16.23;;;;;;;6.71;89.82;98194.25;1711390;81;20891;-74
2022/03/30 02:36:40;;;;;;;31.00;17.82;;;;;;;6.68;90.05;98193.53;1712455;83;21423;-75
2022/03/30 02:39:07;;;;;;;26.40;16.30;;;;;;;6.66;90.33;98190.33;1683297;83;20955;-80
2022/03/30 02:41:34;;;;;;;33.15;18.12;;;;;;;6.63;90.50;98195.30;1685393;84;21085;-78
2022/03/30 02:44:04;;;;;;;27.48;15.45;;;;;;;6.62;90.61;98192.33;1683958;83;21556;-78
2022/03/30 02:46:31;;;;;;;30.32;16.73;;;;;;;6.60;90.90;98184.23;1740721;81;21054;-78
2022/03/30 02:48:58;;;;;;;28.10;16.35;;;;;;;6.57;91.11;98182.15;1739448;81;21061;-78
2022/03/30 02:51:27;;;;;;;23.80;16.23;;;;;;;6.53;91.36;98181.98;1699841;83;20966;-76
2022/03/30 02:53:55;;;;;;;26.62;15.98;;;;;;;6.50;91.62;98179.91;1703941;83;21055;-76
2022/03/30 02:56:22;;;;;;;29.25;15.13;;;;;;;6.50;91.70;98181.83;1740454;81;21910;-79
2022/03/30 02:58:50;;;;;;;30.10;16.67;;;;;;;6.50;91.71;98185.36;1741676;81;20939;-83
2022/03/30 03:01:17;;;;;;;29.57;16.07;;;;;;;6.51;91.60;98178.78;1741676;82;21116;-84
2022/03/30 03:03:44;;;;;;;25.85;16.35;;;;;;;6.54;91.53;98171.33;1712827;82;21565;-83
2022/03/30 03:06:10;;;;;;;24.82;14.00;;;;;;;6.56;91.38;98173.73;1739871;81;20947;-80
2022/03/30 03:08:39;;;;;;;25.17;15.10;;;;;;;6.57;91.44;98173.97;1750043;81;21419;-84
2022/03/30 03:11:05;;;;;;;27.85;15.00;;;;;;;6.54;91.48;98172.69;1708557;83;20932;-84
2022/03/30 03:13:34;;;;;;;27.13;15.55;;;;;;;6.51;91.48;98177.98;1739868;81;20935;-84
2022/03/30 03:16:01;;;;;;;25.60;15.28;;;;;;;6.48;91.52;98188.17;1708532;83;20939;-84
2022/03/30 03:18:27;;;;;;;27.82;16.45;;;;;;;6.43;91.61;98189.13;1714957;83;20999;-84
2022/03/30 03:20:54;;;;;;;29.85;14.65;;;;;;;6.38;91.87;98183.84;1682466;84;21159;-84
2022/03/30 03:23:21;;;;;;;28.45;15.80;;;;;;;6.31;92.00;98186.27;1682669;83;20915;-84
2022/03/30 03:25:47;;;;;;;25.15;15.88;;;;;;;6.28;92.43;98183.62;1684308;84;21450;-83
2022/03/30 03:28:15;;;;;;;30.30;16.67;;;;;;;6.27;92.77;98183.39;1747603;80;21062;-83
2022/03/30 03:30:41;;;;;;;25.25;15.53;;;;;;;6.29;92.94;98191.24;1713464;83;20932;-84
2022/03/30 03:33:09;;;;;;;30.43;17.92;;;;;;;6.33;93.00;98187.31;1748003;81;21145;-84
2022/03/30 03:35:36;;;;;;;28.65;17.27;;;;;;;6.36;92.93;98195.63;1751152;81;21046;-83
2022/03/30 03:38:04;;;;;;;31.95;18.57;;;;;;;6.40;92.78;98196.59;1748104;81;20942;-83
2022/03/30 03:40:31;;;;;;;31.55;18.15;;;;;;;6.44;92.69;98203.00;1748100;81;20911;-76
2022/03/30 03:42:59;;;;;;;27.70;17.12;;;;;;;6.47;92.51;98207.01;1702761;83;21039;-75
2022/03/30 03:45:26;;;;;;;34.73;16.37;;;;;;;6.48;92.44;98209.42;1750922;81;21140;-75
2022/03/30 03:47:52;;;;;;;32.50;17.90;;;;;;;6.50;92.29;98214.55;1749590;81;21061;-79
2022/03/30 03:50:19;;;;;;;26.48;15.98;;;;;;;6.52;92.13;98216.39;1701983;84;20987;-79
2022/03/30 03:52:48;;;;;;;24.92;16.05;;;;;;;6.50;91.79;98219.44;1713336;83;20996;-75
2022/03/30 03:55:15;;;;;;;25.62;16.17;;;;;;;6.47;91.68;98226.89;1688186;83;20963;-75
2022/03/30 03:57:42;;;;;;;32.55;17.12;;;;;;;6.43;91.83;98227.30;1742856;82;21115;-74
2022/03/30 04:00:10;;;;;;;31.68;17.70;;;;;;;6.40;92.04;98232.58;1714697;82;21002;-78
2022/03/30 04:02:41;;;;;;;32.13;18.15;;;;;;;6.37;92.39;98235.95;1753556;81;21021;-77
2022/03/30 04:05:10;;;;;;;31.25;17.85;;;;;;;6.35;92.72;98238.22;1749881;81;21528;-79
2022/03/30 04:07:38;;;;;;;30.97;19.17;;;;;;;6.34;93.07;98234.70;1701418;83;20996;-79
2022/03/30 04:10:09;;;;;;;34.65;19.87;;;;;;;6.33;93.53;98235.02;1741448;81;20993;-79
2022/03/30 04:12:40;;;;;;;29.37;17.37;;;;;;;6.30;93.93;98244.62;1737576;82;20990;-73
2022/03/30 04:15:09;;;;;;;26.12;15.65;;;;;;;6.27;94.05;98242.54;1740135;81;20904;-76
2022/03/30 04:17:44;;;;;;;35.00;18.52;;;;;;;6.24;94.04;98240.45;1710939;83;20966;-74
2022/03/30 04:20:12;;;;;;;34.13;18.95;;;;;;;6.20;94.02;98246.30;1700709;83;20929;-75
2022/03/30 04:22:42;;;;;;;30.10;17.73;;;;;;;6.18;93.88;98247.17;1742481;81;20887;-76
2022/03/30 04:25:09;;;;;;;30.48;16.82;;;;;;;6.15;94.06;98244.53;1705700;83;20885;-76
2022/03/30 04:27:46;;;;;;;34.25;19.52;;;;;;;6.14;94.04;98242.92;1708110;83;21526;-76
2022/03/30 04:30:13;;;;;;;29.45;19.40;;;;;;;6.15;93.98;98252.70;1716777;81;22273;-75
2022/03/30 04:32:42;;;;;;;37.53;19.40;;;;;;;6.15;93.98;98255.98;1709176;83;20963;-75
2022/03/30 04:35:11;;;;;;;36.48;20.65;;;;;;;6.17;93.86;98260.56;1709214;83;21136;-75
2022/03/30 04:37:39;;;;;;;35.80;18.77;;;;;;;6.15;93.69;98263.60;1686509;84;21552;-83
2022/03/30 04:40:08;;;;;;;41.42;22.30;;;;;;;6.15;93.66;98265.52;1681410;84;21082;-83
2022/03/30 04:42:36;;;;;;;37.08;20.80;;;;;;;6.16;93.49;98267.93;1683493;83;21144;-82
2022/03/30 04:45:04;;;;;;;36.58;20.25;;;;;;;6.15;93.08;98266.88;1688739;84;21482;-83
2022/03/30 04:47:32;;;;;;;40.25;21.95;;;;;;;6.16;93.07;98274.74;1750759;81;21261;-80
2022/03/30 04:49:59;;;;;;;38.67;20.70;;;;;;;6.19;92.99;98276.03;1717556;83;20999;-80
2022/03/30 04:52:25;;;;;;;44.35;22.10;;;;;;;6.21;92.46;98278.68;1749939;81;21545;-79
2022/03/30 04:54:52;;;;;;;37.13;21.23;;;;;;;6.22;92.19;98280.28;1715828;83;20947;-79
2022/03/30 04:57:19;;;;;;;38.45;21.00;;;;;;;6.23;92.24;98277.00;1716775;83;21527;-80
2022/03/30 04:59:45;;;;;;;32.75;19.27;;;;;;;6.26;92.15;98277.73;1741120;81;21140;-76
2022/03/30 05:02:12;;;;;;;43.08;23.00;;;;;;;6.27;91.88;98281.50;1733284;81;20896;-77
2022/03/30 05:04:39;;;;;;;42.35;22.17;;;;;;;6.28;91.56;98283.11;1704208;83;21014;-77
2022/03/30 05:07:06;;;;;;;34.23;19.80;;;;;;;6.28;91.63;98280.38;1676579;84;21498;-75
2022/03/30 05:09:35;;;;;;;40.70;22.45;;;;;;;6.32;91.44;98278.38;1658074;85;21015;-77
2022/03/30 05:12:04;;;;;;;40.28;22.17;;;;;;;6.32;90.99;98287.36;1749889;81;21147;-78
2022/03/30 05:14:30;;;;;;;38.75;21.15;;;;;;;6.35;90.92;98284.56;1710624;83;20943;-80
2022/03/30 05:16:58;;;;;;;43.02;20.48;;;;;;;6.36;90.33;98291.02;1739285;81;21029;-78
2022/03/30 05:19:24;;;;;;;37.60;20.95;;;;;;;6.38;89.95;98287.42;1712375;82;21596;-78
2022/03/30 05:21:51;;;;;;;39.60;20.62;;;;;;;6.40;90.13;98288.47;1711809;83;20919;-78
2022/03/30 05:24:20;;;;;;;41.10;21.02;;;;;;;6.43;90.15;98281.81;1750507;81;21781;-78
2022/03/30 05:26:48;;;;;;;40.67;19.12;;;;;;;6.46;90.10;98282.55;1692412;83;20940;-77
2022/03/30 05:29:15;;;;;;;32.78;19.62;;;;;;;6.51;89.75;98282.95;1662946;84;21169;-79
2022/03/30 05:31:45;;;;;;;41.63;22.22;;;;;;;6.52;89.32;98279.91;1738470;82;20955;-79
2022/03/30 05:34:11;;;;;;;36.58;21.07;;;;;;;6.59;89.21;98284.88;1732273;81;21115;-79
2022/03/30 05:36:39;;;;;;;46.63;22.32;;;;;;;6.61;88.82;98282.63;1717110;82;21210;-76
2022/03/30 05:39:06;;;;;;;38.78;21.15;;;;;;;6.62;88.18;98286.41;1713385;82;21578;-75
2022/03/30 05:41:34;;;;;;;41.40;20.15;;;;;;;6.63;87.79;98285.28;1717271;82;21074;-78
2022/03/30 05:44:02;;;;;;;37.25;19.85;;;;;;;6.66;87.65;98274.30;1657071;85;21029;-77
2022/03/30 05:46:30;;;;;;;40.43;19.45;;;;;;;6.69;87.56;98266.84;1719106;82;20947;-77
2022/03/30 05:48:56;;;;;;;40.92;21.17;;;;;;;6.77;87.46;98265.23;1730014;82;21107;-74
2022/03/30 05:51:24;;;;;;;37.78;21.00;;;;;;;6.82;86.94;98265.88;1706338;82;20872;-76
2022/03/30 05:53:50;;;;;;;36.08;22.20;;;;;;;6.89;87.02;98269.48;1712587;83;20924;-77
2022/03/30 05:56:18;;;;;;;35.52;20.27;;;;;;;7.00;86.88;98270.73;1709939;83;20903;-78
2022/03/30 05:58:44;;;;;;;34.20;20.40;;;;;;;7.12;85.86;98272.23;1706702;82;20963;-75
2022/03/30 06:01:11;;;;;;;33.63;19.35;;;;;;;7.23;85.32;98268.04;1719076;81;21069;-75
2022/03/30 06:03:38;;;;;;;35.52;20.43;;;;;;;7.33;84.40;98268.83;1715833;82;21460;-77
2022/03/30 06:06:06;;;;;;;30.02;18.65;;;;;;;7.43;83.61;98279.40;1712787;82;20966;-77
2022/03/30 06:08:34;;;;;;;29.55;17.73;;;;;;;7.49;82.00;98280.27;1713997;82;20931;-75
2022/03/30 06:11:02;;;;;;;34.18;17.05;;;;;;;7.53;81.41;98283.92;1677525;84;20889;-77
2022/03/30 06:13:30;;;;;;;36.13;19.57;;;;;;;7.55;80.40;98275.40;1677415;84;22074;-76
2022/03/30 06:15:56;;;;;;;36.13;19.42;;;;;;;7.57;80.48;98277.23;1647994;85;20974;-75
2022/03/30 06:18:23;;;;;;;41.37;20.32;;;;;;;7.62;80.12;98281.96;1682681;84;20865;-81
2022/03/30 06:20:51;;;;;;;30.65;18.35;;;;;;;7.65;78.35;98285.17;1679386;84;20924;-80
2022/03/30 06:23:18;;;;;;;33.78;17.75;;;;;;;7.62;78.49;98281.96;1734849;81;21022;-81
2022/03/30 06:25:47;;;;;;;35.78;18.27;;;;;;;7.62;77.89;98286.63;1741355;81;21253;-79
2022/03/30 06:28:14;;;;;;;33.65;18.50;;;;;;;7.58;77.90;98293.30;1753864;81;21030;-79
2022/03/30 06:30:42;;;;;;;34.88;17.82;;;;;;;7.59;78.44;98290.00;1749856;81;20986;-80
2022/03/30 06:33:10;;;;;;;34.85;17.92;;;;;;;7.62;78.81;98285.25;1750028;81;20928;-75
2022/03/30 06:35:39;;;;;;;30.17;17.73;;;;;;;7.68;78.97;98287.24;1717990;82;21558;-76
2022/03/30 06:38:06;;;;;;;36.53;17.65;;;;;;;7.73;78.48;98291.97;1709864;83;21142;-74
2022/03/30 06:40:33;;;;;;;33.83;18.80;;;;;;;7.79;78.70;98287.92;1710072;83;21070;-72
2022/03/30 06:43:01;;;;;;;31.97;18.10;;;;;;;7.84;78.10;98288.31;1712289;82;21010;-74
2022/03/30 06:45:28;;;;;;;25.80;16.20;;;;;;;7.89;77.78;98293.59;1724492;82;21810;-73
2022/03/30 06:47:55;;;;;;;28.65;16.57;;;;;;;7.93;77.84;98291.24;1727730;81;21628;-75
2022/03/30 06:50:21;;;;;;;31.55;16.00;;;;;;;7.99;77.65;98285.03;1727060;81;21831;-77
2022/03/30 06:52:48;;;;;;;30.50;15.13;;;;;;;8.04;77.62;98288.14;1740615;81;21006;-75
2022/03/30 06:55:15;;;;;;;27.77;15.98;;;;;;;8.09;77.62;98289.29;1731108;81;21029;-74
2022/03/30 06:57:44;;;;;;;26.70;15.18;;;;;;;8.12;76.82;98292.16;1739088;81;20998;-76
2022/03/30 07:00:12;;;;;;;32.28;15.48;;;;;;;8.14;76.46;98289.91;1733402;81;20987;-76
2022/03/30 07:02:40;;;;;;;28.20;15.05;;;;;;;8.18;76.27;98298.25;1730392;81;21813;-75
2022/03/30 07:05:38;;;;;;;24.57;14.80;;;;;;;8.19;75.75;98297.92;1737243;81;20950;-75
2022/03/30 07:10:53;;;;;;;27.58;15.60;;;;;;;8.28;76.21;98304.70;1749944;81;21011;-76
2022/03/30 07:13:22;;;;;;;26.62;14.95;;;;;;;8.34;75.78;98306.16;1757381;81;20926;-75
2022/03/30 07:15:49;;;;;;;24.43;14.68;;;;;;;8.39;75.14;98305.16;1745100;81;21154;-71
2022/03/30 07:18:19;;;;;;;28.57;15.83;;;;;;;8.42;74.89;98305.30;1746830;81;21014;-75
2022/03/30 07:20:49;;;;;;;28.10;15.18;;;;;;;8.42;74.21;98310.77;1747219;80;20990;-75
2022/03/30 07:23:18;;;;;;;34.83;16.48;;;;;;;8.41;73.88;98314.63;1732523;81;21513;-74
2022/03/30 07:25:47;;;;;;;30.82;15.95;;;;;;;8.41;73.86;98320.67;1725321;81;21061;-73
2022/03/30 07:28:16;;;;;;;32.08;15.25;;;;;;;8.41;73.85;98320.67;1750406;80;21177;-72
2022/03/30 07:30:45;;;;;;;28.65;14.58;;;;;;;8.41;73.45;98320.11;1749140;81;21053;-74
2022/03/30 07:33:12;;;;;;;20.88;12.95;;;;;;;8.43;73.48;98319.20;1753445;81;20997;-73
2022/03/30 07:35:46;;;;;;;22.30;13.55;;;;;;;8.45;73.01;98316.95;1754426;81;21009;-74
2022/03/30 07:38:10;;;;;;;28.77;14.70;;;;;;;8.44;72.49;98326.28;1744860;81;21482;-73
2022/03/30 07:40:39;;;;;;;30.77;15.35;;;;;;;8.42;72.53;98325.01;1713675;82;21017;-73
2022/03/30 07:43:07;;;;;;;30.23;14.63;;;;;;;8.42;72.42;98321.70;1716283;82;20987;-73
2022/03/30 07:45:36;;;;;;;23.55;14.15;;;;;;;8.41;72.55;98328.31;1716022;82;21037;-73
2022/03/30 07:48:05;;;;;;;26.97;15.93;;;;;;;8.41;72.35;98326.94;1718241;82;21100;-73
2022/03/30 07:50:33;;;;;;;28.87;16.45;;;;;;;8.40;72.21;98323.17;1713987;83;21132;-74
2022/03/30 07:53:01;;;;;;;28.60;16.40;;;;;;;8.39;72.16;98327.84;1713509;82;21579;-74
2022/03/30 07:55:28;;;;;;;28.67;16.35;;;;;;;8.41;71.97;98330.23;1715160;82;21149;-75
2022/03/30 07:57:56;;;;;;;26.30;15.30;;;;;;;8.39;71.85;98333.30;1710495;83;21086;-75
2022/03/30 08:00:23;;;;;;;26.20;16.52;;;;;;;8.36;71.61;98325.77;1731078;82;20939;-75
2022/03/30 08:02:50;;;;;;;31.97;16.65;;;;;;;8.34;71.61;98332.13;1744706;81;20934;-75
2022/03/30 08:05:17;;;;;;;43.17;20.12;;;;;;;8.32;71.74;98332.19;1742618;81;21039;-75
2022/03/30 08:07:45;;;;;;;33.30;18.90;;;;;;;8.33;72.16;98337.36;1744861;81;21082;-72
2022/03/30 08:10:13;;;;;;;27.13;15.80;;;;;;;8.35;72.41;98331.56;1718326;82;20923;-72
2022/03/30 08:12:41;;;;;;;26.73;15.80;;;;;;;8.38;72.76;98331.70;1751676;81;21077;-73
2022/03/30 08:15:09;;;;;;;27.22;14.95;;;;;;;8.40;72.56;98334.91;1708192;83;20974;-74
2022/03/30 08:17:36;;;;;;;26.93;14.45;;;;;;;8.40;72.20;98339.02;1746206;81;21725;-74
2022/03/30 08:20:04;;;;;;;25.60;15.45;;;;;;;8.37;72.29;98341.03;1729189;81;21555;-75
2022/03/30 08:22:33;;;;;;;29.10;16.10;;;;;;;8.37;72.36;98349.81;1729655;81;21128;-74
2022/03/30 08:25:06;;;;;;;27.42;15.68;;;;;;;8.36;72.46;98351.74;1736167;81;21144;-74
2022/03/30 08:27:34;;;;;;;31.90;17.98;;;;;;;8.34;72.65;98359.47;1734967;81;21053;-73
2022/03/30 08:30:02;;;;;;;30.65;16.80;;;;;;;8.29;73.13;98363.73;1734913;81;21809;-74
2022/03/30 08:32:29;;;;;;;37.15;16.95;;;;;;;8.23;74.21;98365.84;1735515;81;21631;-75
2022/03/30 08:34:57;;;;;;;33.02;18.00;;;;;;;8.21;74.52;98371.41;1745353;81;20942;-77
2022/03/30 08:37:24;;;;;;;35.10;17.35;;;;;;;8.17;75.02;98361.69;1753712;81;21092;-76
2022/03/30 08:39:53;;;;;;;32.00;17.48;;;;;;;8.13;76.23;98363.47;1748218;81;21451;-72
2022/03/30 08:42:20;;;;;;;26.70;16.75;;;;;;;8.07;77.05;98360.72;1726005;81;21180;-74
2022/03/30 08:44:49;;;;;;;25.48;15.70;;;;;;;8.02;77.74;98364.19;1724066;82;20896;-80
2022/03/30 08:47:16;;;;;;;28.00;17.30;;;;;;;7.98;78.31;98364.61;1722520;82;20979;-77
2022/03/30 08:49:50;;;;;;;30.43;16.97;;;;;;;7.91;78.50;98359.64;1737703;82;20939;-69
2022/03/30 08:52:16;;;;;;;30.62;17.32;;;;;;;7.91;79.35;98360.45;1726324;82;21048;-70
2022/03/30 08:54:51;;;;;;;29.18;17.40;;;;;;;7.95;79.63;98364.70;1723827;82;21097;-69
2022/03/30 08:57:21;;;;;;;32.53;17.70;;;;;;;7.99;79.82;98356.65;1724836;81;21059;-73
2022/03/30 09:00:05;;;;;;;31.95;18.42;;;;;;;7.99;80.20;98350.62;1735872;81;21020;-72
2022/03/30 09:02:43;;;;;;;56.65;34.35;;;;;;;8.02;80.63;98350.53;1751467;81;21540;-72
2022/03/30 09:05:14;;;;;;;32.30;19.48;;;;;;;8.03;80.88;98346.10;1748402;81;21018;-73
2022/03/30 09:07:43;;;;;;;35.17;18.45;;;;;;;8.04;81.12;98348.27;1745794;81;21161;-71
2022/03/30 09:10:19;;;;;;;29.87;17.73;;;;;;;8.02;81.45;98351.89;1744526;81;21430;-70
2022/03/30 09:12:50;;;;;;;33.33;18.00;;;;;;;8.00;82.30;98355.52;1748297;80;20894;-89
2022/03/30 09:15:20;;;;;;;30.12;17.60;;;;;;;7.95;82.48;98364.70;1751855;81;21497;-81
2022/03/30 09:17:47;;;;;;;26.60;16.90;;;;;;;7.89;83.01;98361.91;1745109;81;21509;-73
2022/03/30 09:20:20;;;;;;;28.90;16.97;;;;;;;7.80;83.77;98359.20;1750508;81;21164;-78
2022/03/30 09:22:58;;;;;;;35.52;18.42;;;;;;;7.75;84.70;98357.20;1751294;81;21620;-74
2022/03/30 09:25:24;;;;;;;33.33;19.65;;;;;;;7.70;85.38;98356.81;1699273;82;21564;-78
2022/03/30 09:27:53;;;;;;;32.50;19.95;;;;;;;7.64;85.68;98362.20;1713495;82;20912;-81
2022/03/30 09:30:21;;;;;;;30.45;18.02;;;;;;;7.59;85.95;98368.64;1716095;82;21538;-74
2022/03/30 09:32:51;;;;;;;33.98;19.92;;;;;;;7.55;86.36;98364.95;1719489;81;21522;-72
2022/03/30 09:35:30;;;;;;;31.80;19.20;;;;;;;7.53;86.88;98367.77;1670472;84;21067;-73
2022/03/30 09:38:11;;;;;;;32.75;17.57;;;;;;;7.52;87.08;98372.43;1710024;82;21549;-75
2022/03/30 09:40:47;;;;;;;27.35;16.73;;;;;;;7.52;87.21;98379.82;1730466;82;21027;-77
2022/03/30 09:43:24;;;;;;;26.20;15.72;;;;;;;7.50;87.62;98380.17;1721262;82;20899;-72
2022/03/30 09:46:13;;;;;;;26.97;16.80;;;;;;;7.46;87.93;98381.95;1728346;81;21133;-70
2022/03/30 09:48:54;;;;;;;30.65;17.17;;;;;;;7.43;88.46;98387.25;1736497;81;20883;-75
2022/03/30 09:51:21;;;;;;;28.62;16.77;;;;;;;7.40;89.24;98387.33;1719889;82;21047;-71
2022/03/30 09:53:53;;;;;;;28.17;17.70;;;;;;;7.34;89.43;98378.27;1722702;82;22194;-78
2022/03/30 09:56:25;;;;;;;26.37;16.77;;;;;;;7.26;90.14;98378.51;1660756;84;21031;-79
2022/03/30 09:59:01;;;;;;;29.67;16.82;;;;;;;7.23;90.77;98373.69;1664546;84;20932;-78
2022/03/30 10:01:34;;;;;;;35.50;22.05;;;;;;;7.26;91.26;98372.48;1721563;81;21022;-77
2022/03/30 10:04:08;;;;;;;35.55;20.43;;;;;;;7.27;91.67;98370.00;1728558;81;20982;-82
2022/03/30 10:06:40;;;;;;;34.30;20.70;;;;;;;7.27;92.15;98376.82;1753372;81;21013;-80
2022/03/30 10:09:12;;;;;;;33.55;19.42;;;;;;;7.26;92.69;98367.03;1752969;81;21063;-74
2022/03/30 10:11:44;;;;;;;28.70;18.12;;;;;;;7.28;93.08;98367.51;1750403;81;21868;-84
2022/03/30 10:14:14;;;;;;;32.00;19.23;;;;;;;7.30;93.55;98364.45;1745465;81;20899;-85
2022/03/30 10:16:47;;;;;;;31.45;18.82;;;;;;;7.34;93.84;98365.98;1747703;81;21068;-85
2022/03/30 10:19:16;;;;;;;30.68;19.12;;;;;;;7.35;94.07;98364.85;1748236;81;20986;-80
2022/03/30 10:22:00;;;;;;;32.47;18.40;;;;;;;7.34;94.24;98368.14;1755317;81;21022;-75
2022/03/30 10:25:02;;;;;;;31.85;20.25;;;;;;;7.35;94.58;98371.67;1749560;81;21147;-75
2022/03/30 10:27:50;;;;;;;33.67;20.35;;;;;;;7.36;94.74;98373.28;1732559;81;20963;-73
2022/03/30 10:30:29;;;;;;;30.77;18.40;;;;;;;7.35;94.68;98370.31;1717953;81;20973;-73
2022/03/30 10:33:03;;;;;;;31.65;19.65;;;;;;;7.34;95.18;98368.14;1695456;83;21315;-76
2022/03/30 10:35:51;;;;;;;33.80;18.62;;;;;;;7.34;95.18;98368.71;1658016;86;20883;-73
2022/03/30 10:38:25;;;;;;;31.15;18.65;;;;;;;7.35;95.26;98371.67;1658039;85;21573;-74
2022/03/30 10:41:10;;;;;;;30.10;19.40;;;;;;;7.37;95.40;98377.63;1730264;81;21011;-76
2022/03/30 10:43:42;;;;;;;30.68;18.20;;;;;;;7.38;95.48;98373.77;1707332;82;21546;-74
2022/03/30 10:46:14;;;;;;;37.63;21.05;;;;;;;7.39;95.96;98365.81;1704906;82;20996;-74
2022/03/30 10:48:49;;;;;;;35.40;18.77;;;;;;;7.39;95.94;98367.98;1706616;82;21090;-71
2022/03/30 10:51:20;;;;;;;32.30;18.42;;;;;;;7.41;95.70;98371.75;1714684;82;21225;-71
2022/03/30 10:54:00;;;;;;;25.72;16.50;;;;;;;7.38;95.56;98360.92;1691565;82;21487;-71
2022/03/30 10:56:32;;;;;;;32.58;17.92;;;;;;;7.37;95.65;98359.88;1742676;81;20939;-76
2022/03/30 10:59:05;;;;;;;34.23;19.80;;;;;;;7.33;96.03;98357.55;1694922;83;20956;-78
2022/03/30 11:01:41;;;;;;;32.95;20.17;;;;;;;7.34;96.29;98356.42;1688955;83;21008;-74
2022/03/30 11:04:24;;;;;;;39.18;21.90;;;;;;;7.34;96.22;98359.16;1721671;81;21164;-77
2022/03/30 11:06:59;;;;;;;38.23;20.57;;;;;;;7.33;96.30;98359.72;1716981;82;20980;-74
2022/03/30 11:09:35;;;;;;;37.28;22.95;;;;;;;7.32;96.33;98355.94;1603983;85;21094;-72
2022/03/30 11:12:13;;;;;;;34.65;20.30;;;;;;;7.29;96.56;98354.66;1717391;82;21040;-72
2022/03/30 11:14:44;;;;;;;33.33;21.25;;;;;;;7.33;96.94;98360.28;1737700;81;20936;-72
2022/03/30 11:17:15;;;;;;;35.35;21.07;;;;;;;7.35;97.17;98352.01;1720427;81;21200;-78
2022/03/30 11:19:56;;;;;;;;;;;;;;;7.35;97.18;98362.13;1718865;81;21126;-76
2022/03/30 11:22:28;;;;;;;35.23;20.30;;;;;;;7.34;97.20;98356.42;1743039;81;20114;-75
2022/03/30 11:25:18;;;;;;;52.62;29.63;;;;;;;7.33;97.30;98356.19;1753526;81;20933;-76
2022/03/30 11:27:47;;;;;;;39.15;21.73;;;;;;;7.34;97.41;98357.79;1749691;81;20978;-76
2022/03/30 11:30:18;;;;;;;31.62;20.43;;;;;;;7.33;97.51;98358.35;1751097;81;21151;-73
2022/03/30 11:32:53;;;;;;;31.62;20.40;;;;;;;7.33;97.60;98363.01;1729793;81;20962;-77
2022/03/30 11:35:25;;;;;;;35.00;20.10;;;;;;;7.34;97.97;98353.69;1736686;81;20987;-87
2022/03/30 11:38:27;;;;;;;31.37;17.70;;;;;;;7.35;98.17;98358.83;1735926;81;21089;-89
2022/03/30 11:41:09;;;;;;;36.13;20.30;;;;;;;7.36;98.12;98352.81;1727871;81;20916;-76
2022/03/30 11:46:38;;;;;;;34.00;20.72;;;;;;;7.36;98.70;98356.34;1721602;82;21525;-74